createdAt,value
2022-12-25T00:03:34.168Z,1000.72
2022-12-25T00:08:33.328Z,1000.68
2022-12-25T00:13:33.229Z,1000.63
2022-12-25T00:18:33.198Z,1000.61
2022-12-25T00:23:33.100Z,1000.53
2022-12-25T00:28:33.023Z,1000.45
2022-12-25T00:33:32.962Z,1000.35
2022-12-25T00:38:32.898Z,1000.40
2022-12-25T00:43:32.831Z,1000.53
2022-12-25T00:48:32.786Z,1000.54
2022-12-25T00:53:32.719Z,1000.60
2022-12-25T00:58:32.626Z,1000.52
2022-12-25T01:03:32.561Z,1000.61
2022-12-25T01:08:32.528Z,1000.63
2022-12-25T01:13:32.429Z,1000.71
2022-12-25T01:18:32.351Z,1000.84
2022-12-25T01:23:32.293Z,1000.93
2022-12-25T01:28:32.219Z,1001.03
2022-12-25T01:33:32.163Z,1001.14
2022-12-25T01:38:32.081Z,1001.10
2022-12-25T01:43:32.064Z,1001.18
2022-12-25T01:48:31.950Z,1001.24
2022-12-25T01:53:31.907Z,1001.31
2022-12-25T01:58:31.839Z,1001.26
2022-12-25T02:03:32.036Z,1001.16
2022-12-25T02:08:31.680Z,1001.15
2022-12-25T02:13:31.633Z,1001.22
2022-12-25T02:18:31.544Z,1001.18
2022-12-25T02:23:31.521Z,1001.10
2022-12-25T02:28:31.425Z,1001.04
2022-12-25T02:33:31.338Z,1001.04
2022-12-25T02:38:31.278Z,1001.12
2022-12-25T02:43:31.207Z,1001.05
2022-12-25T02:48:31.148Z,1000.96
2022-12-25T02:53:31.078Z,1001.06
2022-12-25T02:58:31.013Z,1001.16
2022-12-25T03:03:31.031Z,1001.19
2022-12-25T03:08:30.891Z,1001.12
2022-12-25T03:13:30.807Z,1001.05
2022-12-25T03:18:30.783Z,1001.13
2022-12-25T03:23:30.680Z,1001.23
2022-12-25T03:28:30.620Z,1001.22
2022-12-25T03:33:45.123Z,1001.21
2022-12-25T03:38:31.528Z,1001.18
2022-12-25T03:43:30.417Z,1001.29
2022-12-25T03:48:30.353Z,1001.35
2022-12-25T03:53:30.281Z,1001.23
2022-12-25T03:58:30.223Z,1001.12
2022-12-25T04:03:30.246Z,1001.00
2022-12-25T04:08:30.102Z,1001.10
2022-12-25T04:13:30.061Z,1001.18
2022-12-25T04:18:29.962Z,1001.33
2022-12-25T04:23:29.889Z,1001.34
2022-12-25T04:28:29.849Z,1001.31
2022-12-25T04:33:29.757Z,1001.32
2022-12-25T04:38:29.707Z,1001.34
2022-12-25T04:43:29.625Z,1001.33
2022-12-25T04:48:29.566Z,1001.27
2022-12-25T04:53:29.496Z,1001.23
2022-12-25T04:58:29.430Z,1001.20
2022-12-25T05:03:29.465Z,1001.25
2022-12-25T05:08:29.290Z,1001.33
2022-12-25T05:13:29.243Z,1001.35
2022-12-25T05:18:29.160Z,1001.24
2022-12-25T05:23:29.127Z,1001.16
2022-12-25T05:28:29.030Z,1001.09
2022-12-25T05:33:28.981Z,1000.94
2022-12-25T05:38:28.906Z,1000.85
2022-12-25T05:43:28.848Z,1000.87
2022-12-25T05:48:28.765Z,1000.74
2022-12-25T05:53:28.711Z,1000.74
2022-12-25T05:58:28.638Z,1000.67
2022-12-25T06:03:28.735Z,1000.75
2022-12-25T06:08:28.503Z,1000.94
2022-12-25T06:13:28.460Z,1000.88
2022-12-25T06:18:28.380Z,1000.73
2022-12-25T06:23:28.376Z,1000.78
2022-12-25T06:28:28.248Z,1001.10
2022-12-25T06:33:28.194Z,1001.15
2022-12-25T06:38:28.112Z,1001.09
2022-12-25T06:43:28.062Z,1000.92
2022-12-25T06:48:27.983Z,1000.93
2022-12-25T06:53:30.175Z,1001.03
2022-12-25T06:58:27.841Z,1001.04
2022-12-25T07:03:27.859Z,1001.11
2022-12-25T07:08:27.727Z,1001.23
2022-12-25T07:13:27.703Z,1001.17
2022-12-25T07:18:27.575Z,1001.21
2022-12-25T07:23:27.528Z,1001.07
2022-12-25T07:28:27.445Z,1001.04
2022-12-25T07:33:27.381Z,1001.06
2022-12-25T07:38:27.304Z,1001.07
2022-12-25T07:43:27.244Z,1001.06
2022-12-25T07:48:27.170Z,1001.10
2022-12-25T07:53:27.109Z,1001.10
2022-12-25T07:58:27.037Z,1000.99
2022-12-25T08:03:27.118Z,1000.95
2022-12-25T08:08:26.901Z,1001.02
2022-12-25T08:13:26.848Z,1000.97
2022-12-25T08:18:29.861Z,1000.88
2022-12-25T08:23:26.716Z,1000.87
2022-12-25T08:28:26.640Z,1000.89
2022-12-25T08:33:26.587Z,1000.91
2022-12-25T08:38:26.501Z,1000.71
2022-12-25T08:43:26.451Z,1000.65
2022-12-25T08:48:26.467Z,1000.46
2022-12-25T08:53:26.322Z,1000.49
2022-12-25T08:58:26.234Z,1000.54
2022-12-25T09:03:26.276Z,1000.57
2022-12-25T09:08:26.112Z,1000.60
2022-12-25T09:13:26.045Z,1000.48
2022-12-25T09:18:25.968Z,1000.37
2022-12-25T09:23:25.912Z,1000.21
2022-12-25T09:28:25.855Z,1000.13
2022-12-25T09:33:25.780Z,1000.25
2022-12-25T09:38:25.716Z,1000.34
2022-12-25T09:43:25.654Z,1000.41
2022-12-25T09:48:25.581Z,1000.34
2022-12-25T09:53:25.546Z,1000.45
2022-12-25T09:58:25.446Z,1000.33
2022-12-25T10:03:25.413Z,1000.35
2022-12-25T10:08:25.318Z,1000.29
2022-12-25T10:13:25.265Z,1000.22
2022-12-25T10:18:25.182Z,1000.08
2022-12-25T10:23:25.125Z,999.88
2022-12-25T10:28:25.056Z,999.78
2022-12-25T10:33:24.976Z,999.70
2022-12-25T10:38:24.914Z,999.52
2022-12-25T10:43:24.862Z,999.58
2022-12-25T10:48:24.783Z,999.67
2022-12-25T10:53:24.715Z,999.61
2022-12-25T10:58:24.651Z,999.65
2022-12-25T11:03:24.756Z,999.45
2022-12-25T11:08:24.539Z,999.26
2022-12-25T11:13:24.448Z,999.06
2022-12-25T11:18:24.401Z,998.84
2022-12-25T11:23:24.316Z,998.75
2022-12-25T11:28:24.249Z,998.49
2022-12-25T11:33:24.175Z,998.45
2022-12-25T11:38:24.099Z,998.42
2022-12-25T11:43:24.081Z,998.23
2022-12-25T11:48:24.006Z,998.42
2022-12-25T11:53:23.910Z,998.52
2022-12-25T11:58:23.843Z,998.34
2022-12-25T12:03:23.960Z,998.05
2022-12-25T12:08:23.768Z,997.99
2022-12-25T12:13:23.742Z,998.15
2022-12-25T12:18:23.787Z,998.11
2022-12-25T12:23:23.506Z,998.30
2022-12-25T12:28:23.435Z,998.21
2022-12-25T12:33:23.375Z,998.08
2022-12-25T12:38:23.297Z,998.06
2022-12-25T12:43:23.235Z,998.05
2022-12-25T12:48:23.165Z,997.96
2022-12-25T12:53:23.104Z,998.03
2022-12-25T12:58:23.029Z,997.97
2022-12-25T13:03:23.019Z,997.89
2022-12-25T13:08:22.907Z,997.85
2022-12-25T13:13:22.834Z,997.84
2022-12-25T13:18:22.770Z,997.74
2022-12-25T13:23:22.704Z,997.63
2022-12-25T13:28:22.636Z,997.37
2022-12-25T13:33:22.594Z,997.50
2022-12-25T13:38:22.518Z,997.55
2022-12-25T13:43:22.435Z,997.50
2022-12-25T13:48:22.379Z,997.58
2022-12-25T13:53:22.302Z,997.61
2022-12-25T13:58:22.225Z,997.63
2022-12-25T14:03:22.338Z,997.63
2022-12-25T14:08:22.105Z,997.64
2022-12-25T14:13:22.033Z,997.60
2022-12-25T14:18:21.962Z,997.55
2022-12-25T14:23:21.897Z,997.50
2022-12-25T14:28:21.838Z,997.42
2022-12-25T14:33:21.767Z,997.26
2022-12-25T14:38:21.700Z,997.20
2022-12-25T14:43:21.635Z,997.07
2022-12-25T14:48:25.214Z,996.92
2022-12-25T14:53:21.499Z,996.71
2022-12-25T14:58:21.461Z,996.77
2022-12-25T15:03:21.571Z,996.87
2022-12-25T15:08:21.288Z,996.94
2022-12-25T15:13:21.224Z,996.84
2022-12-25T15:18:21.153Z,996.80
2022-12-25T15:23:21.349Z,996.88
2022-12-25T15:28:21.037Z,996.75
2022-12-25T15:33:20.958Z,996.56
2022-12-25T15:38:20.889Z,996.44
2022-12-25T15:43:39.897Z,996.44
2022-12-25T15:48:21.786Z,996.30
2022-12-25T15:53:20.694Z,996.20
2022-12-25T15:58:20.621Z,996.17
2022-12-25T16:03:20.632Z,996.08
2022-12-25T16:08:20.492Z,995.93
2022-12-25T16:13:20.426Z,995.86
2022-12-25T16:18:20.357Z,995.85
2022-12-25T16:23:20.311Z,995.77
2022-12-25T16:28:20.224Z,995.76
2022-12-25T16:33:20.171Z,995.78
2022-12-25T16:38:20.085Z,995.66
2022-12-25T16:43:23.976Z,995.55
2022-12-25T16:48:19.955Z,995.58
2022-12-25T16:53:19.903Z,995.53
2022-12-25T16:58:19.821Z,995.49
2022-12-25T17:03:19.880Z,995.49
2022-12-25T17:08:19.689Z,995.48
2022-12-25T17:13:19.628Z,995.47
2022-12-25T17:18:19.567Z,995.40
2022-12-25T17:23:19.496Z,995.26
2022-12-25T17:28:19.417Z,995.15
2022-12-25T17:33:19.359Z,995.04
2022-12-25T17:38:19.283Z,994.93
2022-12-25T17:43:21.143Z,994.89
2022-12-25T17:48:19.157Z,994.84
2022-12-25T17:53:19.104Z,994.81
2022-12-25T17:58:19.062Z,994.84
2022-12-25T18:03:19.179Z,994.70
2022-12-25T18:08:18.881Z,994.67
2022-12-25T18:13:18.835Z,994.74
2022-12-25T18:18:18.754Z,994.89
2022-12-25T18:23:18.700Z,994.87
2022-12-25T18:28:18.621Z,994.82
2022-12-25T18:33:18.567Z,994.73
2022-12-25T18:38:18.479Z,994.85
2022-12-25T18:43:18.430Z,994.81
2022-12-25T18:48:18.346Z,994.57
2022-12-25T18:53:18.296Z,994.67
2022-12-25T18:58:18.212Z,994.81
2022-12-25T19:03:18.237Z,994.62
2022-12-25T19:08:18.082Z,994.55
2022-12-25T19:13:18.016Z,994.48
2022-12-25T19:18:17.945Z,994.63
2022-12-25T19:23:17.884Z,994.62
2022-12-25T19:28:17.835Z,994.50
2022-12-25T19:33:18.211Z,994.58
2022-12-25T19:38:17.677Z,994.61
2022-12-25T19:43:17.630Z,994.57
2022-12-25T19:48:17.544Z,994.48
2022-12-25T19:53:17.500Z,994.44
2022-12-25T19:58:17.414Z,994.41
2022-12-25T20:03:17.422Z,994.34
2022-12-25T20:08:17.280Z,994.36
2022-12-25T20:13:17.231Z,994.49
2022-12-25T20:18:17.147Z,994.55
2022-12-25T20:23:17.088Z,994.52
2022-12-25T20:28:17.015Z,994.47
2022-12-25T20:33:16.955Z,994.41
2022-12-25T20:38:16.884Z,994.49
2022-12-25T20:43:16.825Z,994.52
2022-12-25T20:48:16.746Z,994.41
2022-12-25T20:53:16.719Z,994.32
2022-12-25T20:58:16.613Z,994.24
2022-12-25T21:03:16.734Z,994.19
2022-12-25T21:08:16.481Z,994.13
2022-12-25T21:13:16.422Z,994.17
2022-12-25T21:18:16.351Z,994.29
2022-12-25T21:23:16.288Z,994.40
2022-12-25T21:28:16.213Z,994.23
2022-12-25T21:33:17.309Z,993.95
2022-12-25T21:38:16.086Z,993.94
2022-12-25T21:43:16.038Z,993.99
2022-12-25T21:48:15.961Z,994.09
2022-12-25T21:53:15.909Z,994.08
2022-12-25T21:58:15.826Z,994.19
2022-12-25T22:03:15.830Z,994.05
2022-12-25T22:08:15.711Z,993.88
2022-12-25T22:13:15.665Z,993.93
2022-12-25T22:18:15.561Z,994.10
2022-12-25T22:23:15.488Z,994.20
2022-12-25T22:28:15.424Z,994.13
2022-12-25T22:33:15.373Z,994.09
2022-12-25T22:38:15.286Z,994.08
2022-12-25T22:43:15.224Z,994.02
2022-12-25T22:48:15.149Z,993.89
2022-12-25T22:53:15.095Z,993.83
2022-12-25T22:58:16.026Z,993.74
2022-12-25T23:03:15.112Z,993.70
2022-12-25T23:08:14.906Z,993.80
2022-12-25T23:13:14.826Z,993.77
2022-12-25T23:18:14.784Z,993.80
2022-12-25T23:23:14.692Z,993.70
2022-12-25T23:28:14.628Z,993.84
2022-12-25T23:33:14.558Z,993.89
2022-12-25T23:38:14.495Z,993.82
2022-12-25T23:43:14.417Z,993.80
2022-12-25T23:48:14.390Z,993.73
2022-12-25T23:53:14.288Z,993.73
2022-12-25T23:58:14.228Z,993.67
